Main page
METAR-TAF:

METAR-TAF

Airports :

Košice International Airport

Košice, Slovakia

latitude: 48-39-47N, longitude: 021-14-28E, elevation: 232 m

Current weather observation

The report was made 21 minutes ago, at 20:30 UTC
Wind 2 kt from the West/Northwest
Temperature 4°C
Humidity 87%
Pressure 1026 hPa
Visibility 10 km or more
no clouds below 1500 m and no cumulonimbus

METAR: LZKZ 282030Z 30002KT CAVOK 04/02 Q1026

Time: 22:51 (20:51 UTC)

Forecast

The report was made 3 hours and 51 minutes ago, at 17:00 UTC
Forecast valid from 28 at 18 UTC to 29 at 18 UTC
Wind 2 kt from variable directions
Visibility 10 km or more
no clouds below 1500 m and no cumulonimbus
Probability 40% :
Temporary
from 29 at 00 UTC to 29 at 06 UTC
Visibility: 2000 m
Scattered clouds at a height of 200 ft
patches of fog

TAF: LZKZ 281700Z 2818/2918 VRB02KT CAVOK PROB40 TEMPO 2900/2906 2000 BCFG SCT002

Weather observations and forecasts of more than 4000 airports (METAR and TAF reports).

The available stations are represented by yellow and red dots on the map.

Hover mouse over dot to see the name of the station.

Then click to see weather observations and forecasts.

To change the map : click on the green buttons with a black cross to zoom in, on the green button with a dash to zoom out, or on the green arrows for adjacent maps.


METAR-TAF: